createdAt,value
2023-05-14T00:01:09.066Z,100946.81
2023-05-14T00:04:12.022Z,100947.44
2023-05-14T00:07:15.069Z,100939.28
2023-05-14T00:10:19.406Z,100942.75
2023-05-14T00:13:22.243Z,100934.53
2023-05-14T00:16:25.048Z,100934.75
2023-05-14T00:19:27.998Z,100930.66
2023-05-14T00:22:30.723Z,100924.13
2023-05-14T00:25:33.507Z,100920.03
2023-05-14T00:28:36.209Z,100921.25
2023-05-14T00:31:39.080Z,100909.63
2023-05-14T00:34:41.862Z,100920.06
2023-05-14T00:37:44.705Z,100910.84
2023-05-14T00:40:51.491Z,100918.22
2023-05-14T00:43:54.344Z,100904.13
2023-05-14T00:46:57.222Z,100903.91
2023-05-14T00:50:00.013Z,100911.69
2023-05-14T00:53:03.038Z,100903.28
2023-05-14T00:56:08.444Z,100898.41
2023-05-14T00:59:11.280Z,100896.13
2023-05-14T01:02:14.033Z,100892.06
2023-05-14T01:05:17.494Z,100886.94
2023-05-14T01:08:29.844Z,100887.75
2023-05-14T01:11:42.510Z,100873.84
2023-05-14T01:15:12.055Z,100878.97
2023-05-14T01:18:18.816Z,100874.91
2023-05-14T01:21:43.710Z,100878.34
2023-05-14T01:24:46.656Z,100870.38
2023-05-14T01:27:55.254Z,100874.28
2023-05-14T01:31:09.745Z,100874.69
2023-05-14T01:34:14.162Z,100872.22
2023-05-14T01:37:18.187Z,100868.13
2023-05-14T01:40:21.505Z,100864.84
2023-05-14T01:43:24.674Z,100865.69
2023-05-14T01:46:32.107Z,100857.13
2023-05-14T01:49:37.361Z,100865.28
2023-05-14T01:52:40.169Z,100864.25
2023-05-14T01:55:42.876Z,100865.28
2023-05-14T01:58:45.727Z,100861.22
2023-05-14T02:01:48.753Z,100864.47
2023-05-14T02:04:52.401Z,100864.69
2023-05-14T02:07:55.202Z,100859.38
2023-05-14T02:10:58.015Z,100855.91
2023-05-14T02:14:01.965Z,100859.56
2023-05-14T02:17:04.940Z,100853.44
2023-05-14T02:20:08.307Z,100857.13
2023-05-14T02:23:11.058Z,100851.81
2023-05-14T02:26:13.810Z,100847.53
2023-05-14T02:29:16.537Z,100847.31
2023-05-14T02:32:19.374Z,100845.88
2023-05-14T02:35:22.218Z,100833.22
2023-05-14T02:38:26.797Z,100841.00
2023-05-14T02:41:32.515Z,100836.09
2023-05-14T02:44:35.277Z,100836.94
2023-05-14T02:47:38.282Z,100839.59
2023-05-14T02:50:41.327Z,100826.69
2023-05-14T02:53:44.205Z,100830.41
2023-05-14T02:56:47.273Z,100822.63
2023-05-14T02:59:49.988Z,100818.31
2023-05-14T03:02:53.463Z,100823.03
2023-05-14T03:05:56.912Z,100817.94
2023-05-14T03:08:59.702Z,100818.16
2023-05-14T03:12:02.566Z,100822.84
2023-05-14T03:15:05.663Z,100821.00
2023-05-14T03:18:08.373Z,100814.69
2023-05-14T03:21:11.242Z,100812.03
2023-05-14T03:24:14.115Z,100813.44
2023-05-14T03:27:16.978Z,100806.47
2023-05-14T03:30:19.712Z,100806.28
2023-05-14T03:33:23.012Z,100806.47
2023-05-14T03:36:25.937Z,100801.16
2023-05-14T03:39:28.893Z,100804.66
2023-05-14T03:42:32.349Z,100806.28
2023-05-14T03:45:35.677Z,100808.94
2023-05-14T03:48:38.458Z,100806.88
2023-05-14T03:51:41.209Z,100798.91
2023-05-14T03:54:44.018Z,100804.03
2023-05-14T03:57:47.819Z,100803.81
2023-05-14T04:00:50.957Z,100794.00
2023-05-14T04:03:53.873Z,100792.38
2023-05-14T04:06:57.169Z,100793.78
2023-05-14T04:10:04.014Z,100794.59
2023-05-14T04:13:07.268Z,100794.59
2023-05-14T04:16:11.671Z,100789.28
2023-05-14T04:19:14.518Z,100791.94
2023-05-14T04:22:17.933Z,100780.50
2023-05-14T04:25:20.948Z,100786.63
2023-05-14T04:28:23.728Z,100790.13
2023-05-14T04:31:26.446Z,100790.13
2023-05-14T04:34:29.172Z,100789.88
2023-05-14T04:37:33.081Z,100788.66
2023-05-14T04:40:35.872Z,100780.84
2023-05-14T04:43:38.587Z,100780.84
2023-05-14T04:46:41.415Z,100784.53
2023-05-14T04:49:44.143Z,100779.81
2023-05-14T04:52:46.904Z,100784.50
2023-05-14T04:55:49.595Z,100790.84
2023-05-14T04:58:52.289Z,100779.59
2023-05-14T05:01:55.103Z,100780.22
2023-05-14T05:04:57.812Z,100771.63
2023-05-14T05:08:00.528Z,100783.06
2023-05-14T05:11:03.250Z,100771.25
2023-05-14T05:14:06.000Z,100765.72
2023-05-14T05:17:08.788Z,100768.59
2023-05-14T05:20:12.146Z,100760.81
2023-05-14T05:23:14.937Z,100760.41
2023-05-14T05:26:17.714Z,100767.34
2023-05-14T05:29:20.481Z,100764.69
2023-05-14T05:32:23.553Z,100754.88
2023-05-14T05:35:26.324Z,100751.81
2023-05-14T05:38:29.170Z,100753.84
2023-05-14T05:41:31.912Z,100758.75
2023-05-14T05:44:34.697Z,100752.63
2023-05-14T05:47:37.491Z,100752.44
2023-05-14T05:50:40.303Z,100755.72
2023-05-14T05:53:43.085Z,100745.53
2023-05-14T05:56:45.847Z,100739.16
2023-05-14T05:59:48.742Z,100723.59
2023-05-14T06:02:51.575Z,100728.66
2023-05-14T06:05:54.350Z,100714.78
2023-05-14T06:08:57.059Z,100719.09
2023-05-14T06:11:59.728Z,100711.09
2023-05-14T06:15:02.518Z,100723.97
2023-05-14T06:18:05.906Z,100720.41
2023-05-14T06:21:08.728Z,100733.78
2023-05-14T06:24:11.721Z,100747.06
2023-05-14T06:27:14.449Z,100741.28
2023-05-14T06:30:17.213Z,100743.19
2023-05-14T06:33:23.580Z,100738.25
2023-05-14T06:36:26.452Z,100731.72
2023-05-14T06:39:29.213Z,100728.44
2023-05-14T06:42:31.949Z,100722.69
2023-05-14T06:45:34.660Z,100715.84
2023-05-14T06:48:37.521Z,100714.34
2023-05-14T06:51:40.898Z,100709.53
2023-05-14T06:54:43.618Z,100706.03
2023-05-14T06:57:46.279Z,100687.19
2023-05-14T07:00:48.956Z,100696.03
2023-05-14T07:03:51.785Z,100688.50
2023-05-14T07:06:54.606Z,100697.50
2023-05-14T07:09:57.381Z,100686.03
2023-05-14T07:13:00.195Z,100677.31
2023-05-14T07:16:02.929Z,100674.91
2023-05-14T07:19:05.781Z,100670.34
2023-05-14T07:22:08.520Z,100667.38
2023-05-14T07:25:11.348Z,100663.56
2023-05-14T07:28:14.156Z,100669.56
2023-05-14T07:31:16.957Z,100669.50
2023-05-14T07:34:19.778Z,100669.94
2023-05-14T07:37:23.972Z,100673.50
2023-05-14T07:40:27.522Z,100668.84
2023-05-14T07:43:30.389Z,100678.25
2023-05-14T07:46:33.158Z,100673.34
2023-05-14T07:49:36.154Z,100672.19
2023-05-14T07:52:39.499Z,100667.69
2023-05-14T07:55:42.527Z,100665.03
2023-05-14T07:58:45.260Z,100659.72
2023-05-14T08:01:48.047Z,100647.47
2023-05-14T08:04:50.799Z,100665.28
2023-05-14T08:07:53.593Z,100659.34
2023-05-14T08:10:56.437Z,100667.50
2023-05-14T08:13:59.211Z,100652.56
2023-05-14T08:17:02.020Z,100654.63
2023-05-14T08:20:06.780Z,100644.22
2023-05-14T08:23:10.547Z,100647.00
2023-05-14T08:26:13.284Z,100646.84
2023-05-14T08:29:16.785Z,100641.19
2023-05-14T08:32:23.728Z,100638.09
2023-05-14T08:35:26.973Z,100635.22
2023-05-14T08:38:29.755Z,100638.44
2023-05-14T08:41:32.726Z,100630.84
2023-05-14T08:45:02.324Z,100629.81
2023-05-14T08:48:09.176Z,100612.84
2023-05-14T08:51:12.998Z,100608.53
2023-05-14T08:54:19.350Z,100613.72
2023-05-14T08:57:25.030Z,100624.13
2023-05-14T09:00:27.931Z,100622.28
2023-05-14T09:03:31.602Z,100617.59
2023-05-14T09:06:38.020Z,100623.41
2023-05-14T09:09:41.563Z,100607.06
2023-05-14T09:12:44.625Z,100583.75
2023-05-14T09:15:50.809Z,100575.34
2023-05-14T09:18:53.831Z,100575.97
2023-05-14T09:22:01.141Z,100574.16
2023-05-14T09:25:09.694Z,100570.66
2023-05-14T09:28:12.619Z,100564.78
2023-05-14T09:31:15.533Z,100563.13
2023-05-14T09:34:25.424Z,100575.16
2023-05-14T09:37:28.797Z,100568.00
2023-05-14T09:40:31.513Z,100552.63
2023-05-14T09:43:34.310Z,100554.06
2023-05-14T09:46:37.052Z,100554.19
2023-05-14T09:49:40.196Z,100549.91
2023-05-14T09:52:44.155Z,100550.47
2023-05-14T09:55:47.457Z,100543.75
2023-05-14T09:58:50.561Z,100546.59
2023-05-14T10:01:54.414Z,100553.38
2023-05-14T10:05:02.842Z,100552.94
2023-05-14T10:08:20.190Z,100545.91
2023-05-14T10:11:27.378Z,100539.38
2023-05-14T10:14:39.173Z,100535.66
2023-05-14T10:17:47.486Z,100532.13
2023-05-14T10:21:01.763Z,100535.59
2023-05-14T10:24:06.081Z,100548.41
2023-05-14T10:27:09.198Z,100548.16
2023-05-14T10:30:15.291Z,100547.72
2023-05-14T10:33:18.916Z,100541.53
2023-05-14T10:36:22.512Z,100524.13
2023-05-14T10:40:00.408Z,100531.06
2023-05-14T10:43:04.555Z,100523.09
2023-05-14T10:46:10.069Z,100510.16
2023-05-14T10:49:12.908Z,100506.69
2023-05-14T10:52:20.345Z,100499.81
2023-05-14T10:55:23.172Z,100490.81
2023-05-14T10:58:26.220Z,100493.47
2023-05-14T11:01:29.008Z,100489.69
2023-05-14T11:04:31.875Z,100489.25
2023-05-14T11:07:36.831Z,100483.94
2023-05-14T11:10:39.853Z,100482.91
2023-05-14T11:13:43.065Z,100471.09
2023-05-14T11:16:47.448Z,100461.16
2023-05-14T11:19:51.234Z,100461.53
2023-05-14T11:22:54.111Z,100460.63
2023-05-14T11:25:57.147Z,100468.50
2023-05-14T11:29:00.206Z,100478.53
2023-05-14T11:32:06.123Z,100467.69
2023-05-14T11:35:09.333Z,100463.75
2023-05-14T11:38:16.635Z,100466.09
2023-05-14T11:41:21.679Z,100451.16
2023-05-14T11:44:24.700Z,100444.09
2023-05-14T11:47:29.930Z,100428.03
2023-05-14T11:50:36.660Z,100416.47
2023-05-14T11:53:39.406Z,100427.69
2023-05-14T11:56:42.421Z,100431.59
2023-05-14T11:59:45.998Z,100430.56
2023-05-14T12:02:50.027Z,100442.63
2023-05-14T12:06:00.575Z,100424.44
2023-05-14T12:09:05.571Z,100419.03
2023-05-14T12:12:12.467Z,100421.09
2023-05-14T12:15:17.157Z,100411.03
2023-05-14T12:18:24.495Z,100411.91
2023-05-14T12:21:29.431Z,100401.97
2023-05-14T12:24:32.397Z,100400.81
2023-05-14T12:27:37.807Z,100405.69
2023-05-14T12:30:41.360Z,100386.22
2023-05-14T12:33:44.055Z,100402.19
2023-05-14T12:36:46.794Z,100391.34
2023-05-14T12:39:49.519Z,100397.38
2023-05-14T12:42:52.239Z,100379.78
2023-05-14T12:45:55.692Z,100379.56
2023-05-14T12:48:58.508Z,100367.97
2023-05-14T12:52:19.475Z,100352.97
2023-05-14T12:55:23.991Z,100353.44
2023-05-14T12:58:26.765Z,100357.59
2023-05-14T13:01:29.643Z,100347.38
2023-05-14T13:04:32.611Z,100354.69
2023-05-14T13:07:36.402Z,100359.09
2023-05-14T13:10:39.112Z,100359.09
2023-05-14T13:13:41.928Z,100352.97
2023-05-14T13:16:44.770Z,100341.16
2023-05-14T13:19:47.472Z,100321.94
2023-05-14T13:22:50.183Z,100309.56
2023-05-14T13:25:52.933Z,100310.25
2023-05-14T13:28:55.793Z,100316.66
2023-05-14T13:31:58.776Z,100322.44
2023-05-14T13:35:01.491Z,100315.25
2023-05-14T13:38:04.262Z,100292.44
2023-05-14T13:41:07.331Z,100296.47
2023-05-14T13:44:10.190Z,100285.69
2023-05-14T13:47:12.891Z,100277.91
2023-05-14T13:50:15.718Z,100285.09
2023-05-14T13:53:20.208Z,100284.94
2023-05-14T13:56:23.023Z,100279.16
2023-05-14T13:59:25.898Z,100278.09
2023-05-14T14:02:28.713Z,100280.44
2023-05-14T14:05:31.875Z,100284.63
2023-05-14T14:08:34.707Z,100274.91
2023-05-14T14:11:37.474Z,100283.81
2023-05-14T14:14:40.220Z,100290.44
2023-05-14T14:17:43.226Z,100293.88
2023-05-14T14:20:46.209Z,100281.00
2023-05-14T14:23:49.060Z,100280.03
2023-05-14T14:26:51.819Z,100287.00
2023-05-14T14:29:54.635Z,100280.84
2023-05-14T14:32:57.441Z,100275.81
2023-05-14T14:36:00.134Z,100280.53
2023-05-14T14:39:02.891Z,100262.44
2023-05-14T14:42:07.574Z,100245.06
2023-05-14T14:45:11.099Z,100235.44
2023-05-14T14:48:25.603Z,100230.78
2023-05-14T14:51:28.456Z,100235.28
2023-05-14T14:54:31.201Z,100242.81
2023-05-14T14:57:33.911Z,100232.78
2023-05-14T15:00:36.789Z,100233.91
2023-05-14T15:03:39.612Z,100224.47
2023-05-14T15:06:42.458Z,100228.53
2023-05-14T15:09:45.203Z,100222.69
2023-05-14T15:12:48.427Z,100220.75
2023-05-14T15:15:52.682Z,100223.81
2023-05-14T15:18:55.612Z,100216.13
2023-05-14T15:21:58.760Z,100205.94
2023-05-14T15:25:01.490Z,100197.31
2023-05-14T15:28:06.519Z,100197.94
2023-05-14T15:31:09.393Z,100207.88
2023-05-14T15:34:12.145Z,100206.53
2023-05-14T15:37:14.875Z,100204.31
2023-05-14T15:40:19.624Z,100204.72
2023-05-14T15:43:22.399Z,100199.06
2023-05-14T15:46:25.851Z,100191.16
2023-05-14T15:49:28.668Z,100184.50
2023-05-14T15:52:31.775Z,100184.03
2023-05-14T15:55:34.655Z,100178.53
2023-05-14T15:58:37.434Z,100168.28
2023-05-14T16:01:40.757Z,100158.88
2023-05-14T16:04:45.393Z,100146.50
2023-05-14T16:07:48.202Z,100148.50
2023-05-14T16:10:50.945Z,100142.59
2023-05-14T16:13:53.678Z,100148.41
2023-05-14T16:16:56.465Z,100148.16
2023-05-14T16:20:01.009Z,100151.63
2023-05-14T16:23:04.056Z,100142.84
2023-05-14T16:26:06.846Z,100145.69
2023-05-14T16:29:09.748Z,100140.63
2023-05-14T16:32:12.697Z,100135.81
2023-05-14T16:35:16.913Z,100128.22
2023-05-14T16:38:19.796Z,100131.63
2023-05-14T16:41:22.538Z,100128.75
2023-05-14T16:44:25.280Z,100124.72
2023-05-14T16:47:28.055Z,100121.03
2023-05-14T16:50:30.913Z,100108.13
2023-05-14T16:53:33.665Z,100118.25
2023-05-14T16:56:36.888Z,100111.38
2023-05-14T16:59:39.685Z,100113.63
2023-05-14T17:02:43.094Z,100104.97
2023-05-14T17:05:46.164Z,100102.69
2023-05-14T17:08:49.208Z,100090.91
2023-05-14T17:11:51.934Z,100081.91
2023-05-14T17:14:54.726Z,100085.03
2023-05-14T17:17:57.756Z,100084.72
2023-05-14T17:21:00.486Z,100075.38
2023-05-14T17:24:03.282Z,100084.94
2023-05-14T17:27:07.572Z,100082.78
2023-05-14T17:30:10.805Z,100077.13
2023-05-14T17:33:13.545Z,100086.75
2023-05-14T17:36:16.346Z,100082.41
2023-05-14T17:39:19.059Z,100072.47
2023-05-14T17:42:21.765Z,100072.41
2023-05-14T17:45:24.925Z,100069.69
2023-05-14T17:48:28.155Z,100063.97
2023-05-14T17:51:31.711Z,100063.09
2023-05-14T17:54:34.503Z,100070.00
2023-05-14T17:57:37.791Z,100061.94
2023-05-14T18:00:40.915Z,100047.19
2023-05-14T18:03:43.951Z,100043.41
2023-05-14T18:06:46.780Z,100047.41
2023-05-14T18:09:49.517Z,100045.22
2023-05-14T18:12:52.429Z,100041.19
2023-05-14T18:15:56.641Z,100039.50
2023-05-14T18:19:02.905Z,100034.34
2023-05-14T18:22:05.896Z,100049.72
2023-05-14T18:25:09.755Z,100047.78
2023-05-14T18:28:13.069Z,100046.09
2023-05-14T18:31:16.184Z,100053.44
2023-05-14T18:34:18.992Z,100060.59
2023-05-14T18:37:21.748Z,100051.47
2023-05-14T18:40:24.545Z,100051.16
2023-05-14T18:43:27.669Z,100041.53
2023-05-14T18:46:30.745Z,100034.56
2023-05-14T18:49:33.613Z,100051.16
2023-05-14T18:52:36.573Z,100066.56
2023-05-14T18:55:39.883Z,100090.75
2023-05-14T18:58:42.802Z,100103.91
2023-05-14T19:01:45.887Z,100114.09
2023-05-14T19:04:52.842Z,100125.56
2023-05-14T19:07:57.153Z,100147.16
2023-05-14T19:10:59.917Z,100147.97
2023-05-14T19:14:03.008Z,100134.72
2023-05-14T19:17:06.340Z,100148.31
2023-05-14T19:20:09.855Z,100149.00
2023-05-14T19:23:12.921Z,100159.13
2023-05-14T19:26:16.023Z,100130.31
2023-05-14T19:29:18.724Z,100120.97
2023-05-14T19:32:21.739Z,100123.22
2023-05-14T19:35:24.767Z,100130.72
2023-05-14T19:38:27.765Z,100122.72
2023-05-14T19:41:30.739Z,100108.13
2023-05-14T19:44:33.850Z,100112.06
2023-05-14T19:47:36.661Z,100106.22
2023-05-14T19:50:39.444Z,100104.22
2023-05-14T19:53:42.195Z,100107.13
2023-05-14T19:56:45.118Z,100106.09
2023-05-14T19:59:48.151Z,100104.41
2023-05-14T20:02:51.039Z,100104.31
2023-05-14T20:05:55.044Z,100130.81
2023-05-14T20:08:57.808Z,100137.47
2023-05-14T20:12:00.543Z,100129.63
2023-05-14T20:15:04.291Z,100169.38
2023-05-14T20:18:07.162Z,100150.38
2023-05-14T20:21:10.232Z,100125.91
2023-05-14T20:24:12.958Z,100118.38
2023-05-14T20:27:15.768Z,100112.00
2023-05-14T20:30:19.403Z,100111.44
2023-05-14T20:33:22.200Z,100123.47
2023-05-14T20:36:25.728Z,100138.91
2023-05-14T20:39:28.432Z,100146.91
2023-05-14T20:42:31.243Z,100144.72
2023-05-14T20:45:34.010Z,100138.44
2023-05-14T20:48:36.749Z,100122.59
2023-05-14T20:51:39.579Z,100138.19
2023-05-14T20:54:43.198Z,100137.91
2023-05-14T20:57:45.945Z,100122.41
2023-05-14T21:00:48.674Z,100123.72
2023-05-14T21:03:51.478Z,100148.25
2023-05-14T21:06:54.431Z,100161.69
2023-05-14T21:09:57.225Z,100159.13
2023-05-14T21:13:00.049Z,100128.88
2023-05-14T21:16:03.139Z,100114.09
2023-05-14T21:19:06.061Z,100113.66
2023-05-14T21:22:08.916Z,100111.38
2023-05-14T21:25:11.678Z,100096.78
2023-05-14T21:28:14.442Z,100102.03
2023-05-14T21:31:17.399Z,100107.50
2023-05-14T21:34:20.700Z,100109.03
2023-05-14T21:37:23.623Z,100112.25
2023-05-14T21:40:26.336Z,100110.16
2023-05-14T21:43:29.031Z,100111.38
2023-05-14T21:46:32.189Z,100103.97
2023-05-14T21:49:35.796Z,100114.88
2023-05-14T21:52:38.742Z,100108.00
2023-05-14T21:55:41.708Z,100113.22
2023-05-14T21:58:44.821Z,100109.13
2023-05-14T22:02:05.543Z,100113.00
2023-05-14T22:05:09.612Z,100100.16
2023-05-14T22:08:12.323Z,100106.72
2023-05-14T22:11:15.077Z,100107.78
2023-05-14T22:14:17.782Z,100104.53
2023-05-14T22:17:20.599Z,100103.47
2023-05-14T22:20:23.298Z,100108.66
2023-05-14T22:23:25.961Z,100111.97
2023-05-14T22:26:28.692Z,100108.91
2023-05-14T22:29:31.383Z,100092.19
2023-05-14T22:32:34.088Z,100095.59
2023-05-14T22:35:36.865Z,100097.66
2023-05-14T22:38:41.324Z,100097.66
2023-05-14T22:41:44.132Z,100100.25
2023-05-14T22:44:46.848Z,100100.03
2023-05-14T22:47:49.717Z,100114.50
2023-05-14T22:50:52.451Z,100112.72
2023-05-14T22:53:55.264Z,100114.19
2023-05-14T22:56:58.148Z,100098.75
2023-05-14T23:00:01.016Z,100084.09
2023-05-14T23:03:04.227Z,100087.72
2023-05-14T23:06:07.227Z,100084.81
2023-05-14T23:09:09.979Z,100079.81
2023-05-14T23:12:12.713Z,100078.28
2023-05-14T23:15:15.539Z,100082.00
2023-05-14T23:18:18.357Z,100076.28
2023-05-14T23:21:21.221Z,100078.84
2023-05-14T23:24:24.070Z,100078.13
2023-05-14T23:27:27.369Z,100063.50
2023-05-14T23:30:30.100Z,100050.91
2023-05-14T23:33:32.800Z,100043.63
2023-05-14T23:36:35.938Z,100029.56
2023-05-14T23:39:38.692Z,100021.03
2023-05-14T23:42:42.122Z,100022.88
2023-05-14T23:45:44.936Z,100025.28
2023-05-14T23:48:47.733Z,100032.72
2023-05-14T23:51:50.676Z,100030.56
2023-05-14T23:54:53.703Z,100015.28
2023-05-14T23:57:56.391Z,99998.97
